Time;durP1;ratioP1;P1;durP2;ratioP2;P2;SDS_P1;SDS_P2;PMS_P1;PMS_P2;Temp;Humidity;BMP_temperature;BMP_pressure;BME280_temperature;BME280_humidity;BME280_pressure;Samples;Min_cycle;Max_cycle;Signal;HPM_P1;HPM_P2
2021/04/09 00:00:08;;;;;;;0.10;0.10;;;;;;;-0.99;86.48;101274.09;1811227;79;21446;-41
2021/04/09 00:02:42;;;;;;;0.62;0.62;;;;;;;-1.01;86.51;101277.49;1785206;78;21108;-42
2021/04/09 00:05:12;;;;;;;0.25;0.25;;;;;;;-1.03;86.53;101274.98;1785455;80;21572;-41
2021/04/09 00:07:40;;;;;;;0.42;0.30;;;;;;;-1.06;86.57;101283.40;1783838;80;21118;-41
2021/04/09 00:10:09;;;;;;;0.10;0.10;;;;;;;-1.07;86.65;101276.86;1804251;79;21202;-41
2021/04/09 00:12:37;;;;;;;0.10;0.10;;;;;;;-1.09;86.64;101284.59;1796144;79;21132;-42
2021/04/09 00:15:08;;;;;;;0.70;0.37;;;;;;;-1.11;86.65;101284.45;1755400;80;21135;-41
2021/04/09 00:17:36;;;;;;;0.10;0.10;;;;;;;-1.13;86.70;101285.14;1782259;79;21135;-41
2021/04/09 00:20:06;;;;;;;0.10;0.10;;;;;;;-1.17;86.78;101293.22;1781891;79;21122;-42
2021/04/09 00:22:33;;;;;;;0.10;0.10;;;;;;;-1.18;86.86;101300.95;1752333;80;21135;-42
2021/04/09 00:25:01;;;;;;;0.10;0.10;;;;;;;-1.20;86.95;101298.95;1786691;80;21150;-41
2021/04/09 00:27:28;;;;;;;0.10;0.10;;;;;;;-1.22;86.96;101292.92;1787246;80;21135;-41
2021/04/09 00:29:56;;;;;;;0.20;0.20;;;;;;;-1.24;87.02;101297.63;1757458;80;21131;-41
2021/04/09 00:32:24;;;;;;;0.20;0.20;;;;;;;-1.28;87.01;101297.69;1756670;81;21587;-41
2021/04/09 00:34:52;;;;;;;0.35;0.35;;;;;;;-1.31;87.07;101303.73;1758490;80;21123;-42
2021/04/09 00:37:20;;;;;;;0.15;0.15;;;;;;;-1.36;87.09;101302.58;1748639;81;21156;-42
2021/04/09 00:39:48;;;;;;;0.10;0.10;;;;;;;-1.41;87.25;101317.03;1759026;80;21106;-41
2021/04/09 00:42:20;;;;;;;0.10;0.10;;;;;;;-1.46;87.37;101306.84;1765808;80;21150;-42
2021/04/09 00:44:47;;;;;;;0.13;0.13;;;;;;;-1.50;87.48;101304.22;1737630;81;21175;-41
2021/04/09 00:47:15;;;;;;;0.10;0.10;;;;;;;-1.53;87.59;101312.11;1728591;82;21143;-41
2021/04/09 00:49:42;;;;;;;0.62;0.62;;;;;;;-1.57;87.74;101309.45;1751335;81;21844;-41
2021/04/09 00:52:11;;;;;;;0.10;0.10;;;;;;;-1.59;87.84;101309.30;1750051;81;21127;-41
2021/04/09 00:54:38;;;;;;;3.40;0.47;;;;;;;-1.64;87.94;101305.81;1727332;82;21131;-41
2021/04/09 00:57:06;;;;;;;0.10;0.10;;;;;;;-1.66;88.13;101307.83;1745692;81;21159;-41
2021/04/09 00:59:34;;;;;;;0.10;0.10;;;;;;;-1.68;88.33;101312.56;1721514;81;21132;-41
2021/04/09 01:02:03;;;;;;;0.10;0.10;;;;;;;-1.69;88.39;101306.03;1728330;82;21125;-41
2021/04/09 01:04:31;;;;;;;0.10;0.10;;;;;;;-1.72;88.43;101315.25;1748298;80;21138;-43
2021/04/09 01:06:59;;;;;;;0.10;0.10;;;;;;;-1.77;88.35;101317.12;1743168;81;21186;-41
2021/04/09 01:09:26;;;;;;;0.23;0.23;;;;;;;-1.89;88.30;101314.52;1748461;81;21501;-41
2021/04/09 01:11:54;;;;;;;0.00;0.00;;;;;;;-2.00;88.22;101318.95;1759042;81;21456;-41
2021/04/09 01:14:21;;;;;;;0.80;0.80;;;;;;;-2.12;88.30;101321.69;1757907;80;21147;-41
2021/04/09 01:17:09;;;;;;;0.10;0.10;;;;;;;-2.24;88.43;101318.04;1762822;80;21170;-41
2021/04/09 01:19:48;;;;;;;0.30;0.30;;;;;;;-2.34;88.62;101325.45;1773392;80;21574;-43
2021/04/09 01:22:16;;;;;;;0.10;0.10;;;;;;;-2.43;88.80;101330.48;1742048;81;21448;-41
2021/04/09 01:25:41;;;;;;;0.35;0.35;;;;;;;-2.50;89.00;101337.53;1733854;80;21153;-43
2021/04/09 01:28:23;;;;;;;0.53;0.53;;;;;;;-2.57;89.21;101344.58;1759219;81;21161;-44
2021/04/09 01:31:23;;;;;;;0.40;0.40;;;;;;;-2.65;89.51;101334.73;1835369;76;28693;-41
2021/04/09 01:33:54;;;;;;;0.20;0.20;;;;;;;-2.76;89.78;101337.27;1685393;83;21705;-40
2021/04/09 01:36:34;;;;;;;0.10;0.10;;;;;;;-2.82;90.06;101338.80;1723962;82;21353;-41
2021/04/09 01:39:15;;;;;;;0.30;0.30;;;;;;;-2.85;90.23;101343.13;1726947;80;21170;-40
2021/04/09 01:41:43;;;;;;;0.17;0.17;;;;;;;-2.90;90.45;101344.64;1684288;84;21151;-41
2021/04/09 01:44:11;;;;;;;2.25;0.75;;;;;;;-2.93;90.80;101349.00;1673408;84;21577;-41
2021/04/09 01:46:41;;;;;;;0.17;0.17;;;;;;;-2.98;90.68;101346.00;1653105;84;21148;-41
2021/04/09 01:49:11;;;;;;;0.10;0.10;;;;;;;-3.06;90.74;101353.02;1711618;81;21556;-41
2021/04/09 01:51:38;;;;;;;0.10;0.10;;;;;;;-3.12;90.87;101354.19;1703240;84;21493;-41
2021/04/09 01:54:07;;;;;;;0.20;0.20;;;;;;;-3.18;91.02;101354.36;1713232;80;21457;-41
2021/04/09 01:56:34;;;;;;;0.23;0.23;;;;;;;-3.25;91.15;101360.86;1730593;82;21130;-41
2021/04/09 01:59:02;;;;;;;5.20;3.95;;;;;;;-3.31;91.26;101367.40;1735331;81;21150;-41
2021/04/09 02:01:31;;;;;;;1.05;1.05;;;;;;;-3.37;91.45;101369.38;1705395;82;21336;-41
2021/04/09 02:03:59;;;;;;;0.15;0.15;;;;;;;-3.42;91.64;101366.38;1732762;81;21232;-41
2021/04/09 02:06:26;;;;;;;0.10;0.10;;;;;;;-3.46;91.90;101370.72;1726329;82;21110;-41
2021/04/09 02:08:54;;;;;;;0.10;0.10;;;;;;;-3.50;92.04;101370.70;1732901;81;21253;-41
2021/04/09 02:11:22;;;;;;;0.10;0.10;;;;;;;-3.52;92.18;101378.03;1733172;82;21565;-40
2021/04/09 02:13:50;;;;;;;1.95;0.95;;;;;;;-3.55;92.36;101380.22;1694147;84;21126;-43
2021/04/09 02:16:18;;;;;;;0.20;0.20;;;;;;;-3.57;92.54;101386.22;1692797;82;21137;-41
2021/04/09 02:18:46;;;;;;;0.10;0.10;;;;;;;-3.61;92.69;101384.39;1711912;81;21149;-41
2021/04/09 02:21:13;;;;;;;0.65;0.65;;;;;;;-3.62;92.87;101382.70;1733293;82;21437;-41
2021/04/09 02:23:40;;;;;;;0.10;0.10;;;;;;;-3.63;93.07;101390.89;1717201;81;21816;-41
2021/04/09 02:26:09;;;;;;;0.15;0.15;;;;;;;-3.59;93.69;101391.72;1703957;84;21154;-41
2021/04/09 02:28:39;;;;;;;0.10;0.10;;;;;;;-3.53;93.83;101387.58;1706949;80;21693;-41
2021/04/09 02:31:06;;;;;;;0.10;0.10;;;;;;;-3.50;93.97;101386.73;1703879;83;21141;-41
2021/04/09 02:33:34;;;;;;;0.45;0.30;;;;;;;-3.47;94.01;101391.73;1723002;81;21540;-41
2021/04/09 02:36:13;;;;;;;0.47;0.47;;;;;;;-3.47;93.96;101393.58;1695240;83;21145;-42
2021/04/09 02:38:42;;;;;;;0.20;0.20;;;;;;;-3.50;93.93;101396.09;1710642;80;21237;-42
2021/04/09 02:41:09;;;;;;;0.10;0.10;;;;;;;-3.52;94.04;101394.58;1732059;82;21134;-44
2021/04/09 02:43:36;;;;;;;0.10;0.10;;;;;;;-3.53;94.13;101401.77;1732625;80;21167;-41
2021/04/09 02:46:05;;;;;;;0.65;0.65;;;;;;;-3.55;94.23;101398.41;1726989;82;21140;-41
2021/04/09 02:48:36;;;;;;;0.13;0.13;;;;;;;-3.54;94.38;101405.42;1706816;81;21148;-42
2021/04/09 02:51:07;;;;;;;0.10;0.10;;;;;;;-3.54;94.54;101406.75;1696931;82;21702;-41
2021/04/09 02:53:38;;;;;;;0.53;0.53;;;;;;;-3.53;94.65;101412.45;1730196;80;21166;-41
2021/04/09 02:56:06;;;;;;;0.10;0.10;;;;;;;-3.54;94.70;101409.42;1731789;82;21114;-40
2021/04/09 02:58:34;;;;;;;0.10;0.10;;;;;;;-3.55;94.70;101417.63;1701097;82;21165;-43
2021/04/09 03:01:01;;;;;;;0.20;0.20;;;;;;;-3.57;94.70;101420.45;1651091;84;21487;-41
2021/04/09 03:03:28;;;;;;;0.30;0.30;;;;;;;-3.62;94.68;101421.94;1712317;80;21118;-43
2021/04/09 03:05:56;;;;;;;1.07;0.78;;;;;;;-3.68;94.68;101432.78;1701185;82;21117;-43
2021/04/09 03:08:24;;;;;;;0.13;0.13;;;;;;;-3.72;94.75;101426.91;1732457;80;21153;-41
2021/04/09 03:10:51;;;;;;;0.45;0.45;;;;;;;-3.76;94.83;101426.92;1701649;82;21418;-41
2021/04/09 03:13:18;;;;;;;0.10;0.10;;;;;;;-3.79;94.98;101431.22;1729994;82;21129;-40
2021/04/09 03:16:00;;;;;;;0.10;0.10;;;;;;;-3.79;95.13;101443.24;1720800;83;21174;-41
2021/04/09 03:18:31;;;;;;;0.20;0.20;;;;;;;-3.80;95.29;101442.92;1697162;82;21212;-41
2021/04/09 03:20:59;;;;;;;0.10;0.10;;;;;;;-3.80;95.38;101454.11;1715264;83;21133;-40
2021/04/09 03:23:27;;;;;;;0.10;0.10;;;;;;;-3.79;95.53;101462.45;1731551;81;21533;-40
2021/04/09 03:25:54;;;;;;;0.40;0.40;;;;;;;-3.80;95.67;101453.60;1750930;81;21127;-42
2021/04/09 03:28:21;;;;;;;0.62;0.62;;;;;;;-3.80;95.69;101464.79;1750513;81;21195;-41
2021/04/09 03:30:50;;;;;;;5.30;4.42;;;;;;;-3.80;95.87;101459.45;1748473;81;21547;-42
2021/04/09 03:33:21;;;;;;;2.33;2.20;;;;;;;-3.74;96.28;101468.14;1729810;82;21150;-41
2021/04/09 03:35:48;;;;;;;1.02;1.02;;;;;;;-3.67;96.48;101466.50;1736348;82;21425;-40
2021/04/09 03:38:17;;;;;;;0.57;0.57;;;;;;;-3.60;96.64;101464.86;1728642;82;21102;-41
2021/04/09 03:40:46;;;;;;;0.45;0.45;;;;;;;-3.53;96.83;101471.75;1736178;81;21149;-41
2021/04/09 03:43:14;;;;;;;2.02;1.22;;;;;;;-3.44;97.09;101468.08;1735327;82;21583;-41
2021/04/09 03:45:42;;;;;;;0.62;0.62;;;;;;;-3.32;97.24;101477.97;1702767;82;21133;-41
2021/04/09 03:48:10;;;;;;;0.10;0.10;;;;;;;-3.19;97.48;101484.18;1715745;82;21488;-40
2021/04/09 03:50:38;;;;;;;0.33;0.33;;;;;;;-3.06;97.51;101483.22;1720154;82;21143;-41
2021/04/09 03:53:05;;;;;;;0.23;0.23;;;;;;;-2.96;97.42;101480.40;1719412;82;21017;-40
2021/04/09 03:55:33;;;;;;;0.20;0.20;;;;;;;-2.92;97.33;101489.23;1710785;82;21465;-41
2021/04/09 03:58:03;;;;;;;0.25;0.25;;;;;;;-2.86;97.38;101491.77;1784807;79;21133;-41
2021/04/09 04:00:30;;;;;;;0.37;0.37;;;;;;;-2.80;97.49;101493.77;1787747;79;21670;-41
2021/04/09 04:02:58;;;;;;;0.23;0.23;;;;;;;-2.72;97.66;101495.13;1793681;79;21090;-41
2021/04/09 04:05:25;;;;;;;0.95;0.95;;;;;;;-2.60;97.96;101505.84;1746340;81;21210;-41
2021/04/09 04:07:52;;;;;;;0.45;0.45;;;;;;;-2.46;98.10;101505.66;1749764;81;21115;-40
2021/04/09 04:10:21;;;;;;;0.10;0.10;;;;;;;-2.33;98.16;101509.66;1725988;83;21438;-40
2021/04/09 04:12:49;;;;;;;0.57;0.57;;;;;;;-2.19;98.35;101513.00;1711465;82;21167;-41
2021/04/09 04:15:17;;;;;;;0.10;0.10;;;;;;;-2.00;98.47;101514.48;1717663;82;21148;-41
2021/04/09 04:17:44;;;;;;;0.00;0.00;;;;;;;-1.84;98.39;101510.92;1707970;83;21177;-41
2021/04/09 04:20:12;;;;;;;0.10;0.10;;;;;;;-1.72;98.25;101510.88;1730203;80;21025;-41
2021/04/09 04:22:40;;;;;;;0.68;0.62;;;;;;;-1.57;98.20;101517.70;1707409;82;21484;-41
2021/04/09 04:25:09;;;;;;;0.10;0.10;;;;;;;-1.44;98.26;101515.28;1745056;81;21106;-42
2021/04/09 04:27:36;;;;;;;0.20;0.20;;;;;;;-1.30;98.19;101525.28;1734715;82;21583;-41
2021/04/09 04:30:05;;;;;;;0.50;0.47;;;;;;;-1.13;98.20;101527.89;1750225;80;21163;-41
2021/04/09 04:32:32;;;;;;;0.10;0.10;;;;;;;-0.98;98.09;101530.66;1755473;81;21166;-41
2021/04/09 04:35:00;;;;;;;0.15;0.15;;;;;;;-0.83;98.03;101534.77;1755847;80;21147;-41
2021/04/09 04:37:27;;;;;;;0.72;0.72;;;;;;;-0.69;97.97;101538.86;1746746;81;21157;-41
2021/04/09 04:39:55;;;;;;;0.28;0.28;;;;;;;-0.52;97.88;101544.95;1712927;82;21209;-41
2021/04/09 04:42:24;;;;;;;1.25;1.25;;;;;;;-0.34;97.71;101541.94;1746828;81;21142;-41
2021/04/09 04:44:53;;;;;;;1.37;1.27;;;;;;;-0.16;97.52;101550.19;1747999;80;21142;-43
2021/04/09 04:47:21;;;;;;;0.60;0.60;;;;;;;-0.01;97.20;101550.53;1727219;81;21163;-41
2021/04/09 04:49:48;;;;;;;0.10;0.10;;;;;;;0.15;96.88;101552.23;1755605;80;21123;-41
2021/04/09 04:52:16;;;;;;;0.47;0.47;;;;;;;0.30;96.62;101554.11;1750394;81;21150;-41
2021/04/09 04:54:43;;;;;;;0.25;0.25;;;;;;;0.47;96.09;101565.02;1746484;80;21158;-41
2021/04/09 04:57:11;;;;;;;0.57;0.57;;;;;;;0.64;95.73;101553.52;1734438;81;21461;-41
2021/04/09 04:59:38;;;;;;;0.20;0.20;;;;;;;0.82;95.17;101566.61;1727869;80;21562;-41
2021/04/09 05:02:06;;;;;;;0.15;0.15;;;;;;;0.98;94.29;101566.90;1737330;82;21472;-41
2021/04/09 05:04:34;;;;;;;0.40;0.40;;;;;;;1.16;93.46;101567.83;1715982;82;21138;-41
2021/04/09 05:07:02;;;;;;;0.35;0.35;;;;;;;1.31;92.89;101570.47;1715067;83;21201;-43
2021/04/09 05:09:30;;;;;;;0.20;0.20;;;;;;;1.46;91.88;101569.94;1735976;81;21194;-42
2021/04/09 05:11:58;;;;;;;0.60;0.60;;;;;;;1.59;91.27;101568.70;1713639;82;21102;-41
2021/04/09 05:14:25;;;;;;;0.42;0.42;;;;;;;1.72;90.24;101572.86;1708249;82;21155;-41
2021/04/09 05:16:53;;;;;;;0.15;0.15;;;;;;;1.85;89.30;101571.31;1721521;82;21133;-42
2021/04/09 05:19:20;;;;;;;0.08;0.08;;;;;;;1.99;88.62;101575.78;1721427;82;21281;-42
2021/04/09 05:21:47;;;;;;;0.42;0.42;;;;;;;2.09;87.46;101568.19;1737541;82;21142;-43
2021/04/09 05:24:15;;;;;;;0.25;0.25;;;;;;;2.20;86.69;101574.07;1727997;82;21144;-41
2021/04/09 05:26:44;;;;;;;0.42;0.20;;;;;;;2.29;85.50;101583.16;1724633;81;21132;-41
2021/04/09 05:29:11;;;;;;;1.35;0.30;;;;;;;2.40;84.56;101582.30;1739301;81;21138;-40
2021/04/09 05:31:39;;;;;;;0.70;0.70;;;;;;;2.48;83.96;101581.64;1739238;81;21565;-41
2021/04/09 05:34:06;;;;;;;0.10;0.10;;;;;;;2.53;82.97;101581.88;1725042;81;21449;-41
2021/04/09 05:36:34;;;;;;;0.93;0.68;;;;;;;2.58;82.36;101584.81;1718089;82;21142;-41
2021/04/09 05:39:01;;;;;;;0.15;0.15;;;;;;;2.67;81.68;101588.69;1709739;81;21188;-42
2021/04/09 05:41:29;;;;;;;0.47;0.47;;;;;;;2.73;81.08;101599.53;1730516;82;21580;-42
2021/04/09 05:43:56;;;;;;;0.50;0.50;;;;;;;2.79;80.64;101600.59;1732404;81;21177;-42
2021/04/09 05:46:24;;;;;;;0.20;0.20;;;;;;;2.86;80.05;101597.41;1730584;82;21147;-42
2021/04/09 05:48:51;;;;;;;0.10;0.10;;;;;;;2.95;79.69;101602.14;1726161;80;21181;-43
2021/04/09 05:51:19;;;;;;;0.62;0.62;;;;;;;3.06;79.61;101606.13;1732116;82;21142;-43
2021/04/09 05:53:46;;;;;;;0.30;0.10;;;;;;;3.18;79.28;101607.21;1730218;80;21505;-42
2021/04/09 05:56:14;;;;;;;2.62;1.27;;;;;;;3.29;78.39;101612.54;1712109;83;21161;-43
2021/04/09 05:58:41;;;;;;;1.25;0.88;;;;;;;3.38;77.95;101608.62;1707945;82;21279;-42
2021/04/09 06:01:09;;;;;;;0.50;0.50;;;;;;;3.48;77.76;101610.94;1716438;83;21667;-41
2021/04/09 06:03:37;;;;;;;0.50;0.50;;;;;;;3.60;77.46;101618.77;1709677;82;21471;-41
2021/04/09 06:06:05;;;;;;;0.10;0.10;;;;;;;3.72;77.24;101619.01;1716172;83;21485;-41
2021/04/09 06:08:33;;;;;;;0.40;0.40;;;;;;;3.84;76.98;101616.84;1721683;81;21543;-41
2021/04/09 06:11:00;;;;;;;0.40;0.35;;;;;;;3.98;76.52;101624.95;1726066;80;21216;-41
2021/04/09 06:13:29;;;;;;;0.45;0.42;;;;;;;4.07;76.03;101628.60;1714385;83;21156;-43
2021/04/09 06:15:57;;;;;;;0.23;0.23;;;;;;;4.21;75.33;101630.80;1714967;83;21196;-41
2021/04/09 06:18:25;;;;;;;0.33;0.30;;;;;;;4.34;74.66;101630.48;1720053;80;21137;-41
2021/04/09 06:20:54;;;;;;;1.05;1.05;;;;;;;4.45;74.08;101629.34;1751224;80;21018;-42
2021/04/09 06:23:21;;;;;;;0.08;0.08;;;;;;;4.58;73.83;101635.25;1736812;81;21142;-41
2021/04/09 06:25:49;;;;;;;0.15;0.15;;;;;;;4.74;73.41;101639.38;1717502;81;21130;-42
2021/04/09 06:28:17;;;;;;;0.75;0.35;;;;;;;4.87;72.64;101639.86;1715122;80;21146;-41
2021/04/09 06:30:44;;;;;;;0.88;0.65;;;;;;;4.97;72.52;101638.92;1737588;82;21425;-41
2021/04/09 06:33:13;;;;;;;0.20;0.20;;;;;;;5.07;72.11;101648.78;1733164;82;21153;-42
2021/04/09 06:35:40;;;;;;;0.20;0.20;;;;;;;5.23;71.53;101647.99;1780041;80;21118;-43
2021/04/09 06:38:08;;;;;;;0.20;0.20;;;;;;;5.36;70.86;101650.64;1755858;80;21101;-41
2021/04/09 06:40:36;;;;;;;0.37;0.37;;;;;;;5.49;70.69;101648.38;1786082;80;21090;-42
2021/04/09 06:43:05;;;;;;;0.20;0.20;;;;;;;5.67;70.07;101661.24;1762478;80;21168;-41
2021/04/09 06:45:34;;;;;;;0.00;0.00;;;;;;;5.76;69.58;101655.84;1733734;80;21141;-41
2021/04/09 06:48:02;;;;;;;0.15;0.15;;;;;;;5.88;68.99;101662.24;1780350;79;21141;-43
2021/04/09 06:50:30;;;;;;;0.28;0.28;;;;;;;6.05;68.60;101664.47;1766090;80;21493;-41
2021/04/09 06:52:57;;;;;;;0.50;0.50;;;;;;;6.14;68.13;101656.38;1775343;80;21560;-41
2021/04/09 06:55:25;;;;;;;0.08;0.08;;;;;;;6.28;67.66;101659.80;1765735;80;21110;-42
2021/04/09 06:57:52;;;;;;;0.13;0.13;;;;;;;6.43;67.28;101657.61;1778712;79;21403;-41
2021/04/09 07:00:26;;;;;;;0.60;0.30;;;;;;;6.56;67.09;101658.01;1773564;79;21736;-42
2021/04/09 07:02:53;;;;;;;0.15;0.15;;;;;;;6.64;66.53;101663.14;1722729;81;21199;-41
2021/04/09 07:05:21;;;;;;;0.17;0.17;;;;;;;6.75;66.48;101657.49;1741105;81;21135;-43
2021/04/09 07:07:48;;;;;;;1.00;0.90;;;;;;;6.93;66.27;101655.34;1711133;81;21129;-42
2021/04/09 07:10:16;;;;;;;0.37;0.37;;;;;;;7.14;66.14;101657.59;1764095;80;21166;-41
2021/04/09 07:12:44;;;;;;;0.40;0.40;;;;;;;7.37;65.30;101664.22;1784107;80;21663;-41
2021/04/09 07:15:16;;;;;;;0.35;0.35;;;;;;;7.56;65.55;101661.78;1762637;80;21129;-41
2021/04/09 07:17:48;;;;;;;0.83;0.30;;;;;;;7.74;64.40;101664.47;1774328;80;21126;-42
2021/04/09 07:20:20;;;;;;;1.02;1.02;;;;;;;7.95;64.46;101659.56;1758168;80;21079;-41
2021/04/09 07:22:52;;;;;;;1.10;1.10;;;;;;;8.04;63.58;101665.52;1779319;78;21576;-41
2021/04/09 07:25:28;;;;;;;0.35;0.35;;;;;;;8.13;62.59;101669.55;1774091;80;21189;-41
2021/04/09 07:28:15;;;;;;;1.42;0.65;;;;;;;8.23;61.98;101666.25;1773357;80;21086;-42
2021/04/09 07:30:51;;;;;;;1.57;1.47;;;;;;;8.23;61.90;101664.89;1772307;80;21158;-41
2021/04/09 07:33:24;;;;;;;1.02;1.00;;;;;;;8.29;61.72;101668.05;1763297;80;21910;-43
2021/04/09 07:35:56;;;;;;;;;;;;;;;8.45;61.30;101667.37;1788657;80;21128;-41
2021/04/09 07:38:35;;;;;;;;;;;;;;;8.48;61.18;101670.16;1765736;80;20266;-42
2021/04/09 07:41:08;;;;;;;0.70;0.70;;;;;;;8.64;61.88;101670.84;1785007;80;20659;-42
2021/04/09 07:43:39;;;;;;;0.57;0.57;;;;;;;8.84;60.71;101669.11;1787389;80;21398;-41
2021/04/09 07:46:26;;;;;;;1.07;0.80;;;;;;;9.09;59.88;101668.02;1772829;80;21141;-41
2021/04/09 07:49:05;;;;;;;1.22;0.95;;;;;;;9.27;59.47;101670.58;1771762;80;21182;-41
2021/04/09 07:51:33;;;;;;;0.40;0.40;;;;;;;9.34;58.40;101668.55;1777980;80;21741;-41
2021/04/09 07:54:08;;;;;;;2.70;1.85;;;;;;;9.38;58.50;101667.00;1747979;81;21144;-41
2021/04/09 07:56:49;;;;;;;0.25;0.25;;;;;;;9.48;57.27;101664.48;1768636;80;21109;-41
2021/04/09 07:59:39;;;;;;;0.62;0.62;;;;;;;9.52;57.05;101666.71;1778509;80;21121;-42
2021/04/09 08:04:47;;;;;;;0.88;0.80;;;;;;;9.42;56.92;101658.64;1882041;75;23323;-41
2021/04/09 08:07:34;;;;;;;1.98;0.53;;;;;;;9.41;56.99;101662.42;1855385;77;21481;-40
2021/04/09 08:10:04;;;;;;;2.58;1.75;;;;;;;9.44;56.88;101668.75;1836698;77;21095;-42
2021/04/09 08:12:35;;;;;;;0.53;0.53;;;;;;;9.43;55.29;101664.37;1841804;77;21576;-42
2021/04/09 08:15:19;;;;;;;0.65;0.65;;;;;;;9.29;55.18;101664.35;1795480;78;21122;-41
2021/04/09 08:18:07;;;;;;;0.45;0.45;;;;;;;9.06;55.21;101667.14;1762097;80;21118;-41
2021/04/09 08:20:42;;;;;;;1.67;0.65;;;;;;;8.93;55.99;101666.33;1806602;78;21438;-42
2021/04/09 08:23:11;;;;;;;1.00;1.00;;;;;;;8.83;56.30;101664.74;1813637;78;21165;-40
2021/04/09 08:25:40;;;;;;;0.37;0.37;;;;;;;8.72;55.22;101662.84;1783007;80;21185;-41
2021/04/09 08:28:10;;;;;;;1.57;0.45;;;;;;;8.63;56.20;101663.73;1820258;78;21528;-40
2021/04/09 08:30:38;;;;;;;2.12;1.62;;;;;;;8.66;56.51;101665.16;1751190;81;21133;-40
2021/04/09 08:33:06;;;;;;;0.57;0.50;;;;;;;8.66;55.27;101671.44;1753539;80;21103;-40
2021/04/09 08:35:34;;;;;;;2.80;1.05;;;;;;;8.60;54.97;101665.05;1782096;80;21122;-40
2021/04/09 08:38:02;;;;;;;0.40;0.25;;;;;;;8.57;54.45;101670.94;1784574;80;21126;-41
2021/04/09 08:40:30;;;;;;;0.65;0.65;;;;;;;8.57;54.82;101673.67;1788707;78;21154;-42
2021/04/09 08:42:59;;;;;;;1.12;0.60;;;;;;;8.54;55.43;101673.32;1788633;78;21439;-41
2021/04/09 08:45:28;;;;;;;0.75;0.75;;;;;;;8.41;54.55;101671.66;1768562;80;21142;-43
2021/04/09 08:47:56;;;;;;;0.88;0.88;;;;;;;8.35;54.60;101669.83;1763880;80;21156;-43
2021/04/09 08:50:24;;;;;;;1.55;0.65;;;;;;;8.29;55.22;101673.50;1801238;78;21530;-41
2021/04/09 08:52:51;;;;;;;1.85;0.80;;;;;;;8.29;55.50;101666.69;1784505;79;21197;-41
2021/04/09 08:55:20;;;;;;;0.65;0.40;;;;;;;8.37;55.65;101661.72;1763684;80;21573;-41
2021/04/09 08:57:49;;;;;;;0.30;0.30;;;;;;;8.64;55.16;101670.02;1782968;79;21107;-41
2021/04/09 09:00:20;;;;;;;0.70;0.70;;;;;;;8.89;55.51;101661.59;1789484;79;21162;-40
2021/04/09 09:02:55;;;;;;;1.12;1.10;;;;;;;9.10;53.37;101660.13;1775826;79;21179;-41
2021/04/09 09:05:26;;;;;;;3.20;0.53;;;;;;;9.30;52.78;101659.72;1765205;80;21106;-41
2021/04/09 09:07:55;;;;;;;0.72;0.70;;;;;;;9.56;53.41;101667.89;1769319;80;21131;-42
2021/04/09 09:10:32;;;;;;;0.35;0.35;;;;;;;9.73;50.78;101659.22;1785184;79;21130;-41
2021/04/09 09:13:14;;;;;;;0.62;0.62;;;;;;;9.69;50.21;101668.95;1774527;79;21210;-41
2021/04/09 09:15:52;;;;;;;0.57;0.55;;;;;;;9.72;50.33;101663.55;1778163;79;21142;-41
2021/04/09 09:18:25;;;;;;;0.55;0.50;;;;;;;9.76;49.10;101662.82;1789300;79;21154;-41
2021/04/09 09:21:20;;;;;;;0.80;0.68;;;;;;;9.76;48.84;101658.73;1794111;79;21123;-41
2021/04/09 09:24:03;;;;;;;0.78;0.75;;;;;;;9.78;48.44;101655.22;1806834;79;21116;-41
2021/04/09 09:26:44;;;;;;;0.28;0.28;;;;;;;9.78;48.23;101662.05;1793207;79;21477;-42
2021/04/09 09:29:19;;;;;;;0.10;0.10;;;;;;;9.68;49.47;101659.95;1802540;79;21167;-40
2021/04/09 09:32:06;;;;;;;0.78;0.78;;;;;;;9.64;49.80;101668.86;1787134;79;21116;-40
2021/04/09 09:34:40;;;;;;;0.53;0.20;;;;;;;9.71;50.10;101659.17;1779971;79;21526;-41
2021/04/09 09:37:22;;;;;;;0.57;0.50;;;;;;;9.88;50.29;101660.86;1768979;79;21134;-41
2021/04/09 09:40:02;;;;;;;0.82;0.82;;;;;;;10.17;50.33;101652.64;1787577;79;21391;-41
2021/04/09 09:42:34;;;;;;;1.47;1.00;;;;;;;10.46;50.54;101653.94;1790527;79;21171;-40
2021/04/09 09:45:11;;;;;;;2.08;0.85;;;;;;;10.58;49.96;101653.86;1779842;79;21139;-40
2021/04/09 09:47:44;;;;;;;1.95;1.17;;;;;;;10.61;50.11;101656.94;1778046;78;21123;-41
2021/04/09 09:50:17;;;;;;;1.75;0.90;;;;;;;10.64;49.57;101660.52;1776402;80;21138;-40
2021/04/09 09:53:03;;;;;;;2.50;1.10;;;;;;;10.57;48.91;101657.13;1774873;79;21595;-40
2021/04/09 09:55:43;;;;;;;0.15;0.15;;;;;;;10.53;48.80;101659.55;1763244;81;21166;-41
2021/04/09 09:58:16;;;;;;;1.30;0.85;;;;;;;10.60;49.07;101664.83;1763190;81;21269;-41
2021/04/09 10:00:46;;;;;;;1.32;1.07;;;;;;;10.66;48.45;101669.31;1769419;79;21177;-40
2021/04/09 10:03:20;;;;;;;1.07;0.57;;;;;;;10.60;47.08;101668.92;1778384;79;21644;-42
2021/04/09 10:05:53;;;;;;;0.45;0.33;;;;;;;10.49;48.49;101670.69;1737733;82;21189;-41
2021/04/09 10:08:21;;;;;;;1.77;0.85;;;;;;;10.37;49.01;101671.84;1731197;81;21169;-40
2021/04/09 10:10:55;;;;;;;1.85;1.12;;;;;;;10.31;48.46;101670.91;1727344;81;21157;-41
2021/04/09 10:13:31;;;;;;;1.90;1.27;;;;;;;10.28;47.75;101676.34;1784477;79;21170;-42
2021/04/09 10:16:11;;;;;;;0.53;0.50;;;;;;;10.25;48.07;101667.25;1759494;79;21182;-42
2021/04/09 10:18:53;;;;;;;0.60;0.60;;;;;;;10.18;47.96;101672.04;1749887;79;21245;-41
2021/04/09 10:21:31;;;;;;;0.50;0.42;;;;;;;10.18;47.99;101669.30;1740439;81;21391;-41
2021/04/09 10:24:18;;;;;;;1.22;0.72;;;;;;;10.22;47.85;101666.38;1742979;81;21173;-41
2021/04/09 10:27:01;;;;;;;1.30;0.88;;;;;;;10.19;47.40;101666.03;1744562;81;21110;-40
2021/04/09 10:29:36;;;;;;;0.82;0.82;;;;;;;10.00;47.34;101664.09;1710087;82;21169;-41
2021/04/09 10:32:20;;;;;;;2.00;0.78;;;;;;;9.82;47.77;101665.95;1875160;75;22696;-41
2021/04/09 10:34:49;;;;;;;0.75;0.65;;;;;;;9.61;47.41;101666.08;1836445;77;21143;-41
2021/04/09 10:37:24;;;;;;;0.30;0.30;;;;;;;9.48;48.53;101665.02;1792482;78;21146;-42
2021/04/09 10:39:53;;;;;;;0.53;0.53;;;;;;;9.55;48.81;101668.44;1773855;80;21558;-41
2021/04/09 10:42:20;;;;;;;0.28;0.28;;;;;;;9.74;47.98;101664.96;1807207;78;21534;-41
2021/04/09 10:44:47;;;;;;;0.45;0.20;;;;;;;9.93;47.73;101663.41;1793273;78;21074;-41
2021/04/09 10:47:17;;;;;;;1.65;0.53;;;;;;;10.04;47.31;101664.72;1779273;80;21577;-41
2021/04/09 10:49:45;;;;;;;0.45;0.45;;;;;;;10.19;47.32;101662.78;1714411;80;21155;-41
2021/04/09 10:52:15;;;;;;;0.50;0.50;;;;;;;10.27;47.18;101666.47;1796709;79;21151;-41
2021/04/09 10:54:45;;;;;;;1.98;0.42;;;;;;;10.32;46.33;101662.48;1779504;79;21577;-41
2021/04/09 10:57:18;;;;;;;0.60;0.60;;;;;;;10.33;46.63;101659.20;1777064;79;21149;-41
2021/04/09 10:59:49;;;;;;;0.62;0.45;;;;;;;10.39;45.31;101656.04;1768867;79;21134;-41
2021/04/09 11:02:22;;;;;;;2.00;1.17;;;;;;;10.51;46.27;101658.14;1756028;79;21186;-41
2021/04/09 11:04:58;;;;;;;2.08;0.50;;;;;;;10.68;45.86;101657.59;1779738;79;21154;-41
2021/04/09 11:07:45;;;;;;;1.55;1.45;;;;;;;10.71;43.63;101661.18;1781937;80;21142;-41
2021/04/09 11:10:35;;;;;;;1.55;0.90;;;;;;;10.70;44.19;101657.32;1779028;80;21526;-41
2021/04/09 11:13:04;;;;;;;0.00;0.00;;;;;;;10.84;41.37;101661.91;1756899;81;21191;-43
2021/04/09 11:15:42;;;;;;;0.10;0.10;;;;;;;11.04;38.64;101649.88;1774640;79;21150;-41
2021/04/09 11:18:12;;;;;;;0.10;0.10;;;;;;;11.15;39.05;101641.25;1782234;80;21146;-40
2021/04/09 11:20:45;;;;;;;3.02;0.23;;;;;;;11.41;38.73;101653.35;1778537;80;21519;-43
2021/04/09 11:23:14;;;;;;;0.82;0.80;;;;;;;11.61;39.79;101645.36;1773076;80;21208;-41
2021/04/09 11:25:45;;;;;;;0.82;0.57;;;;;;;11.78;41.96;101643.08;1770897;80;21138;-41
2021/04/09 11:28:29;;;;;;;0.80;0.80;;;;;;;12.00;41.81;101645.80;1762571;80;21221;-42
2021/04/09 11:31:05;;;;;;;0.55;0.47;;;;;;;12.09;41.15;101644.77;1761462;79;21170;-41
2021/04/09 11:33:37;;;;;;;0.60;0.50;;;;;;;11.77;41.37;101646.89;1766674;80;21186;-41
2021/04/09 11:36:21;;;;;;;3.33;1.55;;;;;;;11.55;42.58;101646.95;1751205;79;21180;-42
2021/04/09 11:38:51;;;;;;;0.60;0.47;;;;;;;11.47;42.49;101644.10;1783260;80;21429;-41
2021/04/09 11:41:31;;;;;;;3.10;1.55;;;;;;;11.39;43.20;101643.19;1768342;80;21139;-40
2021/04/09 11:44:01;;;;;;;0.78;0.78;;;;;;;11.38;43.00;101646.48;1775337;80;21126;-41
2021/04/09 11:46:34;;;;;;;1.87;1.30;;;;;;;11.16;42.16;101642.92;1765466;79;21131;-41
2021/04/09 11:49:06;;;;;;;1.65;0.70;;;;;;;10.81;43.41;101636.45;1770438;79;21554;-40